Time;durP1;ratioP1;P1;durP2;ratioP2;P2;SDS_P1;SDS_P2;PMS_P1;PMS_P2;Temp;Humidity;BMP_temperature;BMP_pressure;BME280_temperature;BME280_humidity;BME280_pressure;Samples;Min_cycle;Max_cycle;Signal;HPM_P1;HPM_P2
2023/06/25 00:00:54;;;;;;;5.30;4.80;;;22.30;57.30;;;;;;5083511;28;20036;-67
2023/06/25 00:03:19;;;;;;;5.80;4.68;;;22.20;57.20;;;;;;5063325;28;20692;-67
2023/06/25 00:05:45;;;;;;;5.63;4.95;;;22.20;57.20;;;;;;5083287;28;20045;-67
2023/06/25 00:08:11;;;;;;;5.30;4.47;;;22.20;57.40;;;;;;5082181;28;20044;-67
2023/06/25 00:10:37;;;;;;;6.82;5.25;;;22.20;57.50;;;;;;5085094;28;20048;-66
2023/06/25 00:13:02;;;;;;;5.75;5.15;;;22.10;57.50;;;;;;5084706;28;20067;-66
2023/06/25 00:15:28;;;;;;;6.03;5.35;;;22.10;57.60;;;;;;5086014;28;20029;-67
2023/06/25 00:17:55;;;;;;;5.90;5.32;;;22.10;57.70;;;;;;5082265;28;20471;-66
2023/06/25 00:20:22;;;;;;;6.15;5.30;;;22.00;57.80;;;;;;5084318;28;20040;-67
2023/06/25 00:22:47;;;;;;;5.97;5.38;;;22.00;57.80;;;;;;5085679;28;20135;-66
2023/06/25 00:25:14;;;;;;;5.13;4.63;;;21.90;57.80;;;;;;5084692;28;20134;-66
2023/06/25 00:27:41;;;;;;;6.43;5.78;;;21.90;57.80;;;;;;5084419;28;20036;-67
2023/06/25 00:30:07;;;;;;;5.68;5.07;;;21.90;58.00;;;;;;5083947;28;20471;-67
2023/06/25 00:32:33;;;;;;;5.60;4.93;;;21.90;58.00;;;;;;5087263;28;20535;-66
2023/06/25 00:35:01;;;;;;;7.38;5.28;;;21.80;58.00;;;;;;5068917;28;20088;-67
2023/06/25 00:37:27;;;;;;;7.05;6.35;;;21.80;58.10;;;;;;5083947;28;21227;-67
2023/06/25 00:39:53;;;;;;;6.10;5.45;;;21.80;58.20;;;;;;5085558;28;20234;-67
2023/06/25 00:42:19;;;;;;;7.03;6.30;;;21.70;58.30;;;;;;5084983;28;20040;-67
2023/06/25 00:44:45;;;;;;;5.65;4.82;;;21.70;58.50;;;;;;5081982;28;21393;-67
2023/06/25 00:47:13;;;;;;;6.47;5.88;;;21.70;58.30;;;;;;5082565;28;20044;-67
2023/06/25 00:49:44;;;;;;;6.43;5.82;;;21.60;58.40;;;;;;5085375;28;20062;-67
2023/06/25 00:52:14;;;;;;;7.85;6.25;;;21.60;58.60;;;;;;5085203;28;20073;-67
2023/06/25 00:54:42;;;;;;;7.90;7.13;;;21.60;58.80;;;;;;5085431;28;20067;-67
2023/06/25 00:57:08;;;;;;;6.93;6.18;;;21.60;59.00;;;;;;5085544;28;20052;-67
2023/06/25 00:59:37;;;;;;;7.32;5.70;;;21.60;58.90;;;;;;5086150;28;20035;-67
2023/06/25 01:02:18;;;;;;;6.85;5.93;;;21.50;58.80;;;;;;5085322;28;20452;-67
2023/06/25 01:04:57;;;;;;;8.25;7.07;;;21.50;58.80;;;;;;5084916;28;20036;-67
2023/06/25 01:07:25;;;;;;;7.03;6.22;;;21.50;59.10;;;;;;5084953;28;20040;-67
2023/06/25 01:09:50;;;;;;;9.52;6.50;;;21.40;59.00;;;;;;5077407;28;20044;-67
2023/06/25 01:12:16;;;;;;;7.78;6.97;;;21.40;59.10;;;;;;5072474;28;20044;-67
2023/06/25 01:14:42;;;;;;;9.13;7.82;;;21.40;59.30;;;;;;5072074;28;20068;-67
2023/06/25 01:17:09;;;;;;;10.05;9.05;;;21.30;59.50;;;;;;5055964;28;20036;-66
2023/06/25 01:19:35;;;;;;;7.82;7.03;;;21.30;59.70;;;;;;5073150;28;20094;-67
2023/06/25 01:22:03;;;;;;;7.93;6.40;;;21.30;59.60;;;;;;5072259;28;20123;-66
2023/06/25 01:24:29;;;;;;;7.55;6.35;;;21.30;59.70;;;;;;5073661;28;20079;-66
2023/06/25 01:26:56;;;;;;;7.45;6.65;;;21.20;59.60;;;;;;5073009;28;20065;-66
2023/06/25 01:29:22;;;;;;;8.20;7.40;;;21.20;59.70;;;;;;5072937;28;20444;-66
2023/06/25 01:31:51;;;;;;;7.13;6.43;;;21.20;59.90;;;;;;5073248;28;20040;-66
2023/06/25 01:34:21;;;;;;;8.32;7.53;;;21.20;59.90;;;;;;5056739;28;20040;-66
2023/06/25 01:36:50;;;;;;;11.77;8.07;;;21.10;60.10;;;;;;5072973;28;20044;-67
2023/06/25 01:39:16;;;;;;;9.82;8.82;;;21.10;60.20;;;;;;5072683;28;20040;-66
2023/06/25 01:41:46;;;;;;;8.60;7.70;;;21.10;60.40;;;;;;5072398;28;20056;-66
2023/06/25 01:44:15;;;;;;;9.73;8.73;;;21.10;60.50;;;;;;5072625;28;20054;-66
2023/06/25 01:46:41;;;;;;;8.10;7.20;;;21.00;60.50;;;;;;5074344;28;20480;-66
2023/06/25 01:49:07;;;;;;;10.63;9.63;;;21.00;60.60;;;;;;5073011;28;20040;-66
2023/06/25 01:51:33;;;;;;;10.40;9.30;;;21.00;60.80;;;;;;5072942;28;20037;-66
2023/06/25 01:53:59;;;;;;;8.63;7.72;;;21.00;61.20;;;;;;5072498;28;20480;-66
2023/06/25 01:56:25;;;;;;;9.00;7.22;;;21.00;61.10;;;;;;5072604;28;20052;-66
2023/06/25 01:58:53;;;;;;;7.32;5.93;;;20.90;60.80;;;;;;5072316;28;20036;-66
2023/06/25 02:01:22;;;;;;;6.90;6.20;;;20.90;60.50;;;;;;5072251;28;20076;-66
2023/06/25 02:03:49;;;;;;;9.25;8.27;;;20.90;60.60;;;;;;5072208;28;20484;-67
2023/06/25 02:06:15;;;;;;;9.57;8.57;;;20.90;60.90;;;;;;5055671;28;20040;-67
2023/06/25 02:08:41;;;;;;;9.38;8.02;;;20.80;61.00;;;;;;5072169;28;20503;-67
2023/06/25 02:11:07;;;;;;;9.77;8.77;;;20.80;61.20;;;;;;5072121;28;20055;-67
2023/06/25 02:13:34;;;;;;;8.45;7.57;;;20.80;61.40;;;;;;5071919;28;20141;-66
2023/06/25 02:16:00;;;;;;;10.95;7.55;;;20.80;61.40;;;;;;5071806;28;20079;-66
2023/06/25 02:18:28;;;;;;;9.70;8.63;;;20.80;61.30;;;;;;5073426;28;20040;-67
2023/06/25 02:20:54;;;;;;;9.18;7.88;;;20.70;61.50;;;;;;5072071;28;20093;-66
2023/06/25 02:23:20;;;;;;;10.05;8.20;;;20.70;61.30;;;;;;5073079;28;20048;-66
2023/06/25 02:25:46;;;;;;;8.38;7.32;;;20.70;61.30;;;;;;5071851;28;20572;-68
2023/06/25 02:28:12;;;;;;;10.45;9.45;;;20.70;61.50;;;;;;5089090;28;20043;-65
2023/06/25 02:30:38;;;;;;;12.05;10.43;;;20.70;61.70;;;;;;5071556;28;20049;-65
2023/06/25 02:33:03;;;;;;;12.88;9.68;;;20.70;62.10;;;;;;5071077;28;20121;-68
2023/06/25 02:35:29;;;;;;;14.98;12.63;;;20.70;62.30;;;;;;5055254;28;20033;-68
2023/06/25 02:37:55;;;;;;;16.23;12.75;;;20.70;62.70;;;;;;5071846;28;20120;-68
2023/06/25 02:40:21;;;;;;;14.30;12.65;;;20.60;63.40;;;;;;5071268;28;20059;-68
2023/06/25 02:42:47;;;;;;;14.52;13.02;;;20.50;63.80;;;;;;5072052;28;20415;-68
2023/06/25 02:45:13;;;;;;;15.65;13.85;;;20.40;64.60;;;;;;5071182;28;20049;-65
2023/06/25 02:47:38;;;;;;;14.32;12.82;;;20.30;64.60;;;;;;5071917;28;20072;-68
2023/06/25 02:50:05;;;;;;;16.65;13.57;;;20.30;65.00;;;;;;5054814;28;20098;-68
2023/06/25 02:52:30;;;;;;;14.63;12.63;;;20.20;65.30;;;;;;5071643;28;20487;-68
2023/06/25 02:54:56;;;;;;;13.93;11.55;;;20.10;65.50;;;;;;5071592;28;20046;-68
2023/06/25 02:57:29;;;;;;;10.80;9.68;;;20.10;65.60;;;;;;5071362;28;20399;-68
2023/06/25 02:59:55;;;;;;;13.88;11.57;;;20.00;65.50;;;;;;5071725;28;20044;-68
2023/06/25 03:02:21;;;;;;;14.63;12.23;;;20.00;65.80;;;;;;5062841;28;20127;-66
2023/06/25 03:04:47;;;;;;;15.15;12.85;;;19.90;66.00;;;;;;5071392;28;20115;-66
2023/06/25 03:07:13;;;;;;;10.43;8.80;;;19.80;66.20;;;;;;5071139;28;20044;-67
2023/06/25 03:09:38;;;;;;;12.02;10.65;;;19.80;66.20;;;;;;5071192;28;20066;-67
2023/06/25 03:12:04;;;;;;;18.02;14.60;;;19.80;66.30;;;;;;5071259;28;20068;-67
2023/06/25 03:14:30;;;;;;;13.13;11.65;;;19.80;66.90;;;;;;5071260;28;20357;-67
2023/06/25 03:16:56;;;;;;;13.02;10.75;;;19.70;67.10;;;;;;5070836;28;20119;-67
2023/06/25 03:19:22;;;;;;;12.25;9.73;;;19.60;67.10;;;;;;5070922;28;20072;-67
2023/06/25 03:21:48;;;;;;;11.15;10.00;;;19.60;67.20;;;;;;5071183;28;20147;-67
2023/06/25 03:24:14;;;;;;;9.27;7.80;;;19.60;67.30;;;;;;5070894;28;20044;-67
2023/06/25 03:26:39;;;;;;;10.25;9.18;;;19.60;67.20;;;;;;5070829;28;20043;-67
2023/06/25 03:29:05;;;;;;;11.70;10.50;;;19.50;66.90;;;;;;5071137;28;20036;-67
2023/06/25 03:31:31;;;;;;;12.23;10.93;;;19.50;67.10;;;;;;5071103;28;20058;-67
2023/06/25 03:33:57;;;;;;;13.32;10.40;;;19.50;67.40;;;;;;5071234;28;20041;-67
2023/06/25 03:36:22;;;;;;;14.48;12.32;;;19.50;67.50;;;;;;5070645;28;20048;-67
2023/06/25 03:38:48;;;;;;;17.17;14.10;;;19.50;67.80;;;;;;5071419;28;20047;-67
2023/06/25 03:41:14;;;;;;;12.38;11.07;;;19.50;68.10;;;;;;5071079;28;20548;-67
2023/06/25 03:43:40;;;;;;;13.50;12.10;;;19.50;68.10;;;;;;5072223;28;20050;-67
2023/06/25 03:46:05;;;;;;;14.60;12.23;;;19.50;68.10;;;;;;5075073;28;20041;-67
2023/06/25 03:48:31;;;;;;;12.55;10.85;;;19.50;67.90;;;;;;5076203;28;20036;-67
2023/06/25 03:50:57;;;;;;;12.85;11.60;;;19.50;67.80;;;;;;5075011;28;20181;-67
2023/06/25 03:53:24;;;;;;;10.18;9.07;;;19.50;67.80;;;;;;5074985;28;20044;-67
2023/06/25 03:55:50;;;;;;;12.07;10.07;;;19.50;67.80;;;;;;5073772;28;20041;-67
2023/06/25 03:58:15;;;;;;;8.70;7.80;;;19.50;67.70;;;;;;5057929;28;20036;-67
2023/06/25 04:00:41;;;;;;;12.23;10.93;;;19.50;67.30;;;;;;5074624;28;20079;-67
2023/06/25 04:03:07;;;;;;;12.05;9.82;;;19.50;67.50;;;;;;5074572;28;20373;-67
2023/06/25 04:05:33;;;;;;;9.57;8.57;;;19.50;67.40;;;;;;5074505;28;20048;-67
2023/06/25 04:07:58;;;;;;;12.13;10.82;;;19.50;67.20;;;;;;5074648;28;20037;-68
2023/06/25 04:10:25;;;;;;;11.45;10.27;;;19.50;67.20;;;;;;5074392;28;20037;-68
2023/06/25 04:12:50;;;;;;;11.75;10.55;;;19.50;67.30;;;;;;5074333;28;20044;-68
2023/06/25 04:15:16;;;;;;;14.68;11.93;;;19.50;67.40;;;;;;5076037;28;20032;-68
2023/06/25 04:17:42;;;;;;;11.90;10.50;;;19.60;67.70;;;;;;5074213;28;20472;-68
2023/06/25 04:20:08;;;;;;;14.63;11.15;;;19.60;67.70;;;;;;5074406;28;20476;-68
2023/06/25 04:22:34;;;;;;;14.32;12.32;;;19.60;67.70;;;;;;5073911;28;20052;-68
2023/06/25 04:25:00;;;;;;;16.13;12.35;;;19.60;67.80;;;;;;5057679;28;20561;-68
2023/06/25 04:27:26;;;;;;;16.08;13.32;;;19.60;68.00;;;;;;5074072;28;20068;-68
2023/06/25 04:29:51;;;;;;;15.25;13.45;;;19.60;68.20;;;;;;5075582;28;20032;-68
2023/06/25 04:32:17;;;;;;;15.60;13.25;;;19.60;68.40;;;;;;5057242;28;20036;-68
2023/06/25 04:34:43;;;;;;;18.77;15.32;;;19.60;68.60;;;;;;5074996;28;20040;-68
2023/06/25 04:37:08;;;;;;;15.57;13.68;;;19.60;68.90;;;;;;5074131;28;20043;-68
2023/06/25 04:39:34;;;;;;;16.17;13.90;;;19.50;69.10;;;;;;5073934;28;20038;-68
2023/06/25 04:42:00;;;;;;;15.30;13.60;;;19.50;69.30;;;;;;5073910;28;20089;-68
2023/06/25 04:44:26;;;;;;;16.98;13.95;;;19.40;69.70;;;;;;5073987;28;20037;-68
2023/06/25 04:46:52;;;;;;;15.98;14.15;;;19.40;70.10;;;;;;5057051;28;20036;-68
2023/06/25 04:49:17;;;;;;;16.98;14.15;;;19.30;70.30;;;;;;5073852;28;20044;-68
2023/06/25 04:51:46;;;;;;;15.65;14.02;;;19.30;70.50;;;;;;5073868;28;20063;-68
2023/06/25 04:54:13;;;;;;;17.83;14.57;;;19.20;70.80;;;;;;5057221;28;20089;-69
2023/06/25 04:56:38;;;;;;;16.15;13.02;;;19.20;71.10;;;;;;5073304;28;20055;-69
2023/06/25 04:59:04;;;;;;;19.23;15.32;;;19.20;71.30;;;;;;5073666;28;20395;-69
2023/06/25 05:01:30;;;;;;;17.70;14.85;;;19.20;71.50;;;;;;5073462;28;20071;-69
2023/06/25 05:03:56;;;;;;;17.33;14.05;;;19.10;71.60;;;;;;5073682;28;20487;-69
2023/06/25 05:06:22;;;;;;;17.17;14.73;;;19.10;71.70;;;;;;5073600;28;20041;-69
2023/06/25 05:08:48;;;;;;;16.85;15.05;;;19.20;71.90;;;;;;5073616;28;20043;-69
2023/06/25 05:11:13;;;;;;;16.85;14.30;;;19.10;72.10;;;;;;5073497;28;20487;-69
2023/06/25 05:13:39;;;;;;;18.17;13.43;;;19.20;72.30;;;;;;5073705;28;20048;-69
2023/06/25 05:16:05;;;;;;;15.93;13.55;;;19.20;72.30;;;;;;5073248;28;20368;-69
2023/06/25 05:18:30;;;;;;;15.30;13.70;;;19.30;72.50;;;;;;5071741;28;20080;-69
2023/06/25 05:20:56;;;;;;;16.67;13.35;;;19.40;72.20;;;;;;5072838;28;20128;-69
2023/06/25 05:23:24;;;;;;;17.77;15.18;;;19.50;72.00;;;;;;5073102;28;20063;-69
2023/06/25 05:25:49;;;;;;;16.55;13.63;;;19.60;71.70;;;;;;5056193;28;20472;-69
2023/06/25 05:28:15;;;;;;;15.88;13.23;;;19.80;71.30;;;;;;5073483;28;20045;-67
2023/06/25 05:30:41;;;;;;;16.55;13.18;;;19.90;71.10;;;;;;5073250;28;20052;-68
2023/06/25 05:33:06;;;;;;;12.82;11.52;;;20.10;70.70;;;;;;5055990;28;20055;-67
2023/06/25 05:35:32;;;;;;;12.65;11.20;;;20.30;70.60;;;;;;5072900;28;20048;-68
2023/06/25 05:37:58;;;;;;;14.80;13.07;;;20.60;69.80;;;;;;5072703;28;20051;-68
2023/06/25 05:40:26;;;;;;;13.98;12.50;;;20.80;69.00;;;;;;5073199;28;20082;-68
2023/06/25 05:42:52;;;;;;;13.70;11.18;;;21.00;68.80;;;;;;5072966;28;20036;-68
2023/06/25 05:45:18;;;;;;;13.43;11.65;;;21.30;67.90;;;;;;5072997;28;20047;-68
2023/06/25 05:47:43;;;;;;;15.23;12.07;;;21.50;67.50;;;;;;5073939;28;20037;-66
2023/06/25 05:50:10;;;;;;;12.98;11.35;;;21.70;66.80;;;;;;5072376;28;20051;-67
2023/06/25 05:52:35;;;;;;;14.48;12.38;;;21.90;66.30;;;;;;5056103;28;20086;-67
2023/06/25 05:55:01;;;;;;;15.27;12.30;;;22.10;65.40;;;;;;5072112;28;20071;-67
2023/06/25 05:57:27;;;;;;;13.60;12.10;;;22.30;64.40;;;;;;5072342;28;20234;-67
2023/06/25 05:59:53;;;;;;;13.32;11.98;;;22.50;63.50;;;;;;5072845;28;20044;-67
2023/06/25 06:02:18;;;;;;;14.30;12.80;;;22.60;63.50;;;;;;5072339;28;20448;-67
2023/06/25 06:04:44;;;;;;;12.77;11.25;;;22.80;63.30;;;;;;5072171;28;20041;-67
2023/06/25 06:07:10;;;;;;;15.77;12.50;;;23.00;62.50;;;;;;5054715;28;20063;-67
2023/06/25 06:09:36;;;;;;;13.07;11.68;;;23.30;62.00;;;;;;5055508;28;20039;-67
2023/06/25 06:12:01;;;;;;;13.43;11.98;;;23.50;61.20;;;;;;5072025;28;20068;-67
2023/06/25 06:14:27;;;;;;;13.25;11.90;;;23.70;60.20;;;;;;5072311;28;20040;-67
2023/06/25 06:16:53;;;;;;;13.52;12.13;;;23.80;60.20;;;;;;5072205;28;20490;-67
2023/06/25 06:19:18;;;;;;;13.73;11.85;;;24.10;59.50;;;;;;5071946;28;21528;-67
2023/06/25 06:21:44;;;;;;;12.90;11.55;;;24.30;58.90;;;;;;5071998;28;20087;-67
2023/06/25 06:24:10;;;;;;;13.25;11.70;;;24.50;58.40;;;;;;5071698;28;20049;-67
2023/06/25 06:26:35;;;;;;;13.55;12.20;;;24.60;57.80;;;;;;5071610;28;20540;-67
2023/06/25 06:29:03;;;;;;;13.30;11.70;;;24.70;57.70;;;;;;5072224;28;20213;-67
2023/06/25 06:31:30;;;;;;;13.32;11.73;;;24.80;57.40;;;;;;5063878;28;20048;-67
2023/06/25 06:33:56;;;;;;;12.15;10.13;;;25.10;57.00;;;;;;5071932;28;20040;-67
2023/06/25 06:36:22;;;;;;;11.55;10.38;;;25.30;56.60;;;;;;5071755;28;20384;-67
2023/06/25 06:38:47;;;;;;;11.20;10.00;;;25.60;56.50;;;;;;5071593;28;20051;-67
2023/06/25 06:41:13;;;;;;;11.45;10.13;;;25.90;56.00;;;;;;5071693;28;20051;-66
2023/06/25 06:43:39;;;;;;;13.52;12.18;;;26.30;55.30;;;;;;5073029;28;20445;-67
2023/06/25 06:46:05;;;;;;;11.27;9.85;;;26.70;54.20;;;;;;5054838;28;20040;-67
2023/06/25 06:48:30;;;;;;;12.98;10.52;;;27.10;53.80;;;;;;5071593;28;20045;-67
2023/06/25 06:50:56;;;;;;;12.50;11.20;;;27.50;53.50;;;;;;5071489;28;20395;-67
2023/06/25 06:53:22;;;;;;;12.02;10.82;;;27.80;52.20;;;;;;5054411;28;20121;-67
2023/06/25 06:55:47;;;;;;;11.52;10.43;;;28.00;51.50;;;;;;5071829;28;20047;-67
2023/06/25 06:58:13;;;;;;;12.15;11.05;;;28.10;51.30;;;;;;5071479;28;20493;-67
2023/06/25 07:00:39;;;;;;;11.55;10.43;;;28.30;50.40;;;;;;5071208;28;20538;-67
2023/06/25 07:03:05;;;;;;;11.70;9.82;;;28.30;50.00;;;;;;5071354;28;20177;-67
2023/06/25 07:05:31;;;;;;;10.70;8.70;;;28.50;49.70;;;;;;5071213;28;20395;-67
2023/06/25 07:07:56;;;;;;;11.13;10.02;;;28.80;49.90;;;;;;5071514;28;20067;-68
2023/06/25 07:10:22;;;;;;;10.93;9.82;;;29.10;49.00;;;;;;5071319;28;20487;-67
2023/06/25 07:12:48;;;;;;;11.20;10.05;;;29.20;48.30;;;;;;5070457;28;20133;-66
2023/06/25 07:15:13;;;;;;;10.50;9.50;;;29.30;48.00;;;;;;5070862;28;20043;-67
2023/06/25 07:17:39;;;;;;;11.48;9.57;;;29.30;47.80;;;;;;5069740;28;20064;-67
2023/06/25 07:20:06;;;;;;;10.07;8.98;;;29.30;47.10;;;;;;5067259;28;20649;-66
2023/06/25 07:22:33;;;;;;;11.02;9.93;;;29.30;47.00;;;;;;5070668;28;20109;-67
2023/06/25 07:24:59;;;;;;;10.13;9.05;;;29.30;47.10;;;;;;5071809;28;20122;-67
2023/06/25 07:27:25;;;;;;;11.30;10.20;;;29.20;46.80;;;;;;5070702;28;20040;-67
2023/06/25 07:29:51;;;;;;;10.88;9.30;;;29.10;46.80;;;;;;5071032;28;20411;-67
2023/06/25 07:32:16;;;;;;;10.38;8.93;;;29.00;47.10;;;;;;5071292;28;20075;-67
2023/06/25 07:34:42;;;;;;;8.40;7.60;;;28.80;47.40;;;;;;5071215;28;20055;-67
2023/06/25 07:37:08;;;;;;;9.13;8.23;;;28.80;47.20;;;;;;5072203;28;20039;-68
2023/06/25 07:39:34;;;;;;;8.43;7.47;;;28.80;46.90;;;;;;5072577;28;20140;-68
2023/06/25 07:42:00;;;;;;;9.20;8.30;;;28.80;46.70;;;;;;5072490;28;20048;-69
2023/06/25 07:44:26;;;;;;;9.10;7.97;;;28.90;46.60;;;;;;5071121;28;20045;-68
2023/06/25 07:46:52;;;;;;;9.07;8.18;;;29.00;46.10;;;;;;5070995;28;20082;-68
2023/06/25 07:49:18;;;;;;;9.45;7.40;;;29.20;45.90;;;;;;5070825;28;20082;-68
2023/06/25 07:51:45;;;;;;;8.23;7.43;;;29.30;46.10;;;;;;5052776;28;20067;-68
2023/06/25 07:54:12;;;;;;;8.43;7.63;;;29.20;45.60;;;;;;5070242;28;20036;-68
2023/06/25 07:56:37;;;;;;;8.10;6.80;;;29.20;45.60;;;;;;5070106;28;20045;-68
2023/06/25 07:59:03;;;;;;;9.60;7.22;;;29.20;46.00;;;;;;5069986;28;20037;-68
2023/06/25 08:01:29;;;;;;;6.95;5.75;;;29.30;46.40;;;;;;5070268;28;20503;-68
2023/06/25 08:03:56;;;;;;;7.88;6.70;;;29.40;46.00;;;;;;5070116;28;20037;-68
2023/06/25 08:06:21;;;;;;;7.15;6.10;;;29.60;45.10;;;;;;5071549;28;20044;-68
2023/06/25 08:08:47;;;;;;;6.43;5.72;;;29.70;44.30;;;;;;5071428;28;20437;-69
2023/06/25 08:11:13;;;;;;;5.82;5.22;;;29.80;43.60;;;;;;5070325;28;20040;-69
2023/06/25 08:13:39;;;;;;;6.55;5.70;;;29.90;43.70;;;;;;5070414;28;20047;-69
2023/06/25 08:16:04;;;;;;;5.30;4.80;;;30.10;44.10;;;;;;5069903;28;20037;-69
2023/06/25 08:18:30;;;;;;;5.95;5.35;;;30.40;43.80;;;;;;5070038;28;20047;-69
2023/06/25 08:20:56;;;;;;;5.90;5.30;;;30.70;42.70;;;;;;5069974;28;20074;-69
2023/06/25 08:23:22;;;;;;;6.20;4.90;;;30.90;41.20;;;;;;5070069;28;20048;-69
2023/06/25 08:25:47;;;;;;;5.30;4.80;;;31.00;40.80;;;;;;5070591;28;20105;-69
2023/06/25 08:28:13;;;;;;;7.35;5.03;;;31.10;41.20;;;;;;5054145;28;20345;-68
2023/06/25 08:30:40;;;;;;;6.38;4.65;;;31.30;40.60;;;;;;5072037;28;20025;-68
2023/06/25 08:33:06;;;;;;;5.47;4.47;;;31.30;40.30;;;;;;5073473;28;20037;-68
2023/06/25 08:35:31;;;;;;;6.30;4.80;;;31.40;39.10;;;;;;5073709;28;20062;-68
2023/06/25 08:37:57;;;;;;;5.55;4.82;;;31.40;39.90;;;;;;5091112;28;20032;-68
2023/06/25 08:40:26;;;;;;;6.85;5.28;;;31.50;39.10;;;;;;5073545;28;20109;-68
2023/06/25 08:42:51;;;;;;;4.57;4.13;;;31.50;38.90;;;;;;5073605;28;20041;-68
2023/06/25 08:45:18;;;;;;;6.25;5.40;;;31.50;39.00;;;;;;5073472;28;20119;-68
2023/06/25 08:47:48;;;;;;;5.70;4.88;;;31.50;38.40;;;;;;5074313;28;20047;-68
2023/06/25 08:50:14;;;;;;;4.57;3.83;;;31.60;38.30;;;;;;5072900;28;20051;-68
2023/06/25 08:52:41;;;;;;;6.13;3.95;;;31.60;37.80;;;;;;5073463;28;20040;-68
2023/06/25 08:55:11;;;;;;;6.10;4.25;;;31.60;37.70;;;;;;5073504;28;20040;-68
2023/06/25 08:57:36;;;;;;;5.88;4.72;;;31.60;38.10;;;;;;5089939;28;20499;-68
2023/06/25 09:00:05;;;;;;;6.60;4.28;;;31.70;37.50;;;;;;5073184;28;20227;-68
2023/06/25 09:02:31;;;;;;;6.60;5.30;;;31.70;37.30;;;;;;5073073;28;20181;-68
2023/06/25 09:05:07;;;;;;;9.75;5.43;;;31.70;37.10;;;;;;5072248;28;20547;-68
2023/06/25 09:07:43;;;;;;;6.80;4.88;;;31.70;37.10;;;;;;5072954;28;20048;-68
2023/06/25 09:10:09;;;;;;;9.55;5.03;;;31.70;37.30;;;;;;5073449;28;20032;-67
2023/06/25 09:12:35;;;;;;;6.47;4.72;;;31.60;36.90;;;;;;5056442;28;20109;-67
2023/06/25 09:15:01;;;;;;;6.13;4.75;;;31.60;37.60;;;;;;5056350;28;20068;-67
2023/06/25 09:17:27;;;;;;;6.47;5.03;;;31.80;37.20;;;;;;5074585;28;20091;-67
2023/06/25 09:19:53;;;;;;;8.30;4.65;;;31.90;37.00;;;;;;5072663;28;20123;-67
2023/06/25 09:22:18;;;;;;;5.18;4.05;;;32.00;37.30;;;;;;5070536;28;20093;-67
2023/06/25 09:24:47;;;;;;;6.30;4.70;;;32.20;36.60;;;;;;5072858;28;20123;-67
2023/06/25 09:27:13;;;;;;;6.00;4.82;;;32.30;35.90;;;;;;5072419;28;20048;-67
2023/06/25 09:29:42;;;;;;;5.38;4.30;;;32.20;35.90;;;;;;5072904;28;20033;-67
2023/06/25 09:32:10;;;;;;;6.03;4.22;;;32.20;36.40;;;;;;5072693;28;20396;-67
2023/06/25 09:34:42;;;;;;;6.72;4.40;;;32.20;36.70;;;;;;5072641;28;20068;-67
2023/06/25 09:37:08;;;;;;;5.53;4.60;;;32.20;36.00;;;;;;5073698;28;20039;-67
2023/06/25 09:39:34;;;;;;;6.55;4.47;;;32.20;35.70;;;;;;5074192;28;20415;-67
2023/06/25 09:42:01;;;;;;;6.10;4.53;;;32.20;35.60;;;;;;5072640;28;20064;-67
2023/06/25 09:44:28;;;;;;;6.93;4.70;;;32.20;36.00;;;;;;5071937;28;20036;-68
2023/06/25 09:47:06;;;;;;;7.13;5.55;;;32.30;36.40;;;;;;5072440;28;20098;-68
2023/06/25 09:49:33;;;;;;;8.10;5.22;;;32.50;36.00;;;;;;5072419;28;20044;-68
2023/06/25 09:52:12;;;;;;;7.45;5.45;;;32.60;35.20;;;;;;5072494;28;20024;-68
2023/06/25 09:54:40;;;;;;;7.68;5.28;;;32.60;34.70;;;;;;5072656;28;20515;-68
2023/06/25 09:57:10;;;;;;;6.70;4.97;;;32.60;34.80;;;;;;5073339;28;20036;-68
2023/06/25 09:59:39;;;;;;;6.30;5.38;;;32.70;35.10;;;;;;5071996;28;20115;-68
2023/06/25 10:02:06;;;;;;;7.85;6.10;;;32.80;35.60;;;;;;5071793;28;20040;-68
2023/06/25 10:04:33;;;;;;;7.97;6.55;;;32.90;34.40;;;;;;5072322;28;20037;-68
2023/06/25 10:07:03;;;;;;;11.43;7.55;;;32.90;34.00;;;;;;5064195;28;20037;-67
2023/06/25 10:09:29;;;;;;;11.38;7.53;;;32.90;33.80;;;;;;5073503;28;20036;-68
2023/06/25 10:11:56;;;;;;;10.95;6.72;;;32.70;33.60;;;;;;5071985;28;20513;-68
2023/06/25 10:14:23;;;;;;;7.57;6.00;;;32.60;34.00;;;;;;5071695;28;20044;-68
2023/06/25 10:16:56;;;;;;;7.50;5.35;;;32.50;34.20;;;;;;5071605;28;20048;-68
2023/06/25 10:19:22;;;;;;;;;;;32.60;35.30;;;;;;5072780;28;20075;-68
2023/06/25 10:21:59;;;;;;;7.93;5.68;;;32.50;34.60;;;;;;5071919;28;19920;-68
2023/06/25 10:24:25;;;;;;;6.20;4.25;;;32.50;34.70;;;;;;5071996;28;20052;-68
2023/06/25 10:26:53;;;;;;;7.85;5.57;;;32.60;35.30;;;;;;5072009;28;20059;-68
2023/06/25 10:29:19;;;;;;;8.82;5.85;;;32.60;34.20;;;;;;5071377;28;20052;-68
2023/06/25 10:31:46;;;;;;;7.35;4.80;;;32.60;34.00;;;;;;5072673;28;20116;-67
2023/06/25 10:34:13;;;;;;;7.78;4.70;;;32.60;33.50;;;;;;5046917;28;20077;-67
2023/06/25 10:36:51;;;;;;;8.15;5.45;;;32.50;33.60;;;;;;5071587;28;20119;-67
2023/06/25 10:39:17;;;;;;;6.90;4.75;;;32.40;33.70;;;;;;5071859;28;20507;-68
2023/06/25 10:41:46;;;;;;;8.50;5.30;;;32.30;33.30;;;;;;5072837;28;20044;-68
2023/06/25 10:44:12;;;;;;;5.57;4.00;;;32.20;33.50;;;;;;5071748;28;20051;-68
2023/06/25 10:46:38;;;;;;;6.78;4.22;;;32.20;34.60;;;;;;5072945;28;20040;-68
2023/06/25 10:49:03;;;;;;;7.18;5.28;;;32.30;34.70;;;;;;5071257;28;20047;-68
2023/06/25 10:51:29;;;;;;;6.28;4.30;;;32.50;34.30;;;;;;5071475;28;20094;-68
2023/06/25 10:53:56;;;;;;;7.47;4.57;;;32.60;34.00;;;;;;5088166;28;20518;-68
2023/06/25 10:56:22;;;;;;;6.35;4.13;;;32.60;33.40;;;;;;5071060;28;20056;-68
2023/06/25 10:58:58;;;;;;;4.85;3.92;;;32.60;33.60;;;;;;5088534;28;20078;-68
2023/06/25 11:01:25;;;;;;;4.68;3.80;;;32.60;33.60;;;;;;5072599;28;20419;-68
2023/06/25 11:03:51;;;;;;;4.38;3.90;;;32.60;33.60;;;;;;5070836;28;20047;-68
2023/06/25 11:06:17;;;;;;;5.57;4.40;;;32.60;33.70;;;;;;5067497;28;20115;-68
2023/06/25 11:08:43;;;;;;;4.70;4.20;;;32.70;33.90;;;;;;5071433;28;20045;-68
2023/06/25 11:11:10;;;;;;;4.90;4.10;;;32.80;34.70;;;;;;5070956;28;20049;-68
2023/06/25 11:13:35;;;;;;;6.18;3.67;;;32.90;34.40;;;;;;5070810;28;20507;-68
2023/06/25 11:16:03;;;;;;;4.90;4.05;;;33.00;34.60;;;;;;5070953;28;20046;-68
2023/06/25 11:18:29;;;;;;;5.20;3.63;;;33.20;34.10;;;;;;5071354;28;20048;-68
2023/06/25 11:20:58;;;;;;;4.05;3.25;;;33.30;33.70;;;;;;5070709;28;20044;-68
2023/06/25 11:23:24;;;;;;;4.95;4.05;;;33.30;33.00;;;;;;5071074;28;20560;-68
2023/06/25 11:25:49;;;;;;;4.10;3.70;;;33.30;33.30;;;;;;5054083;28;20119;-68
2023/06/25 11:28:15;;;;;;;4.68;3.88;;;33.40;33.90;;;;;;5070630;28;20037;-68
2023/06/25 11:30:45;;;;;;;5.47;3.60;;;33.50;33.70;;;;;;5071199;28;20040;-67
2023/06/25 11:33:16;;;;;;;4.70;3.70;;;33.70;33.70;;;;;;5070809;28;20040;-66
2023/06/25 11:35:42;;;;;;;5.30;3.95;;;33.80;33.90;;;;;;5070406;28;20491;-67
2023/06/25 11:38:09;;;;;;;3.92;3.42;;;33.90;33.20;;;;;;5069405;28;20060;-67
2023/06/25 11:40:37;;;;;;;4.18;3.63;;;34.00;33.60;;;;;;5074551;28;20033;-67
2023/06/25 11:43:02;;;;;;;5.28;4.00;;;34.00;32.70;;;;;;5083319;28;20096;-67
2023/06/25 11:45:42;;;;;;;4.70;4.22;;;33.90;32.50;;;;;;5081850;28;20107;-67
2023/06/25 11:48:15;;;;;;;4.80;3.97;;;33.80;32.80;;;;;;5082297;28;20106;-67
2023/06/25 11:50:47;;;;;;;6.18;4.45;;;33.60;32.80;;;;;;5082983;28;20052;-67
2023/06/25 11:53:14;;;;;;;5.75;4.47;;;33.40;32.80;;;;;;5082655;28;20044;-67
2023/06/25 11:55:40;;;;;;;4.50;3.75;;;33.20;32.60;;;;;;5065839;28;20032;-66
2023/06/25 11:58:08;;;;;;;6.80;4.22;;;33.10;33.20;;;;;;5082080;28;20118;-66
2023/06/25 12:00:34;;;;;;;5.28;4.53;;;33.10;33.90;;;;;;5079906;28;20399;-67
2023/06/25 12:03:00;;;;;;;6.03;4.22;;;33.10;33.80;;;;;;5083153;28;20069;-66
2023/06/25 12:05:26;;;;;;;7.05;4.10;;;33.10;34.20;;;;;;5083811;28;20387;-67
2023/06/25 12:07:51;;;;;;;4.68;3.85;;;33.10;34.20;;;;;;5085929;28;20483;-66
2023/06/25 12:10:17;;;;;;;5.18;4.40;;;33.10;34.30;;;;;;5083471;28;20044;-67
2023/06/25 12:12:44;;;;;;;3.85;3.45;;;33.10;34.40;;;;;;5085702;28;20051;-66
2023/06/25 12:15:10;;;;;;;5.10;4.47;;;33.10;34.00;;;;;;5086729;28;20082;-66
2023/06/25 12:17:36;;;;;;;4.70;4.15;;;33.10;34.10;;;;;;5067535;28;20131;-66
2023/06/25 12:20:04;;;;;;;5.72;5.00;;;33.10;34.40;;;;;;5085053;28;20040;-66
2023/06/25 12:22:30;;;;;;;5.78;3.92;;;33.10;34.00;;;;;;5086678;28;20127;-66
2023/06/25 12:24:55;;;;;;;6.18;4.15;;;33.20;33.80;;;;;;5070173;28;20130;-66
2023/06/25 12:27:21;;;;;;;4.57;3.83;;;33.20;33.30;;;;;;5085899;28;20043;-66
2023/06/25 12:29:47;;;;;;;4.75;3.97;;;33.20;34.30;;;;;;5085068;28;20052;-66
2023/06/25 12:32:12;;;;;;;5.57;5.00;;;33.30;34.30;;;;;;5083909;28;20509;-66
2023/06/25 12:34:38;;;;;;;5.07;4.57;;;33.40;34.30;;;;;;5086229;28;20048;-66
2023/06/25 12:37:04;;;;;;;5.50;4.80;;;33.60;33.80;;;;;;5084516;28;20051;-66